Time;durP1;ratioP1;P1;durP2;ratioP2;P2;SDS_P1;SDS_P2;PMS_P1;PMS_P2;Temp;Humidity;BMP_temperature;BMP_pressure;BME280_temperature;BME280_humidity;BME280_pressure;Samples;Min_cycle;Max_cycle;Signal;HPM_P1;HPM_P2
2023/10/07 00:00:59;;;;;;;18.95;6.00;;;;;;;12.66;100.00;102066.66;5073966;28;20132;-65
2023/10/07 00:03:25;;;;;;;18.85;6.13;;;;;;;12.62;100.00;102061.28;5074032;28;20436;-66
2023/10/07 00:06:00;;;;;;;19.23;5.88;;;;;;;12.59;100.00;102061.25;5073828;28;20038;-66
2023/10/07 00:08:27;;;;;;;19.50;6.40;;;;;;;12.61;100.00;102047.16;5073725;28;20029;-65
2023/10/07 00:10:53;;;;;;;19.15;6.15;;;;;;;12.63;100.00;102052.47;5073737;28;20025;-66
2023/10/07 00:13:23;;;;;;;19.80;6.18;;;;;;;12.60;100.00;102041.81;5073922;28;20364;-64
2023/10/07 00:15:51;;;;;;;19.65;6.40;;;;;;;12.54;100.00;102043.50;5073941;28;20024;-66
2023/10/07 00:18:18;;;;;;;19.90;6.55;;;;;;;12.50;100.00;102040.78;5073594;28;20031;-66
2023/10/07 00:20:51;;;;;;;20.65;6.75;;;;;;;12.48;100.00;102051.38;5069696;28;20024;-66
2023/10/07 00:23:19;;;;;;;20.27;6.90;;;;;;;12.46;100.00;102050.44;5069712;28;20058;-66
2023/10/07 00:25:49;;;;;;;20.13;7.00;;;;;;;12.52;100.00;102044.34;5069469;28;20029;-66
2023/10/07 00:28:24;;;;;;;20.23;6.85;;;;;;;12.53;100.00;102044.34;5069533;28;20048;-66
2023/10/07 00:30:49;;;;;;;19.92;7.13;;;;;;;12.60;100.00;102039.16;5070199;28;20027;-65
2023/10/07 00:33:19;;;;;;;20.40;7.10;;;;;;;12.57;100.00;102047.97;5073377;28;20025;-66
2023/10/07 00:35:49;;;;;;;19.45;7.05;;;;;;;12.59;100.00;102035.59;5069428;28;20033;-66
2023/10/07 00:38:15;;;;;;;21.23;7.47;;;;;;;12.58;100.00;102048.84;5069424;28;20430;-66
2023/10/07 00:40:45;;;;;;;19.65;7.13;;;;;;;12.52;100.00;102039.94;5073038;28;20056;-66
2023/10/07 00:43:24;;;;;;;21.95;7.70;;;;;;;12.54;100.00;102035.53;5072911;28;20388;-66
2023/10/07 00:45:53;;;;;;;20.73;7.80;;;;;;;12.53;100.00;102041.72;5069935;28;20032;-65
2023/10/07 00:48:18;;;;;;;22.13;7.60;;;;;;;12.47;100.00;102044.28;5073411;28;20032;-66
2023/10/07 00:50:45;;;;;;;22.55;8.13;;;;;;;12.49;100.00;102044.28;5068940;28;20463;-66
2023/10/07 00:53:12;;;;;;;22.40;8.30;;;;;;;12.49;100.00;102061.09;5072919;28;20127;-66
2023/10/07 00:55:38;;;;;;;20.75;8.30;;;;;;;12.50;100.00;102054.91;5073003;28;20063;-66
2023/10/07 00:58:08;;;;;;;21.38;8.40;;;;;;;12.47;100.00;102052.22;5072854;28;20056;-66
2023/10/07 01:00:42;;;;;;;21.95;8.65;;;;;;;12.46;100.00;102044.25;5072881;28;20067;-66
2023/10/07 01:06:25;;;;;;;23.83;8.85;;;;;;;12.45;100.00;102031.84;5073291;28;20522;-66
2023/10/07 01:08:35;;;;;;;21.88;8.80;;;;;;;12.41;100.00;102014.09;5065358;28;20032;-65
2023/10/07 01:11:22;;;;;;;21.85;8.82;;;;;;;12.38;100.00;102020.28;5072898;28;20111;-66
2023/10/07 01:13:50;;;;;;;23.05;8.90;;;;;;;12.38;100.00;102020.28;5069436;28;20036;-66
2023/10/07 01:21:40;;;;;;;23.02;9.27;;;;;;;12.30;100.00;102029.84;5072905;28;20041;-66
2023/10/07 01:24:06;;;;;;;22.67;9.82;;;;;;;12.34;100.00;102042.31;5072706;28;20439;-67
2023/10/07 01:26:33;;;;;;;22.40;9.88;;;;;;;12.37;100.00;102042.34;5072599;28;20040;-68
2023/10/07 01:29:12;;;;;;;22.02;9.68;;;;;;;12.37;100.00;102055.59;5072486;28;20028;-68
2023/10/07 01:31:40;;;;;;;24.50;9.75;;;;;;;12.37;100.00;102045.00;5072515;28;20483;-68
2023/10/07 01:34:08;;;;;;;22.45;9.32;;;;;;;12.32;100.00;102046.66;5072654;28;20036;-68
2023/10/07 01:36:35;;;;;;;22.45;9.73;;;;;;;12.28;100.00;102050.16;5072388;28;20025;-68
2023/10/07 01:39:01;;;;;;;22.98;9.63;;;;;;;12.30;100.00;102041.34;5071026;28;20068;-68
2023/10/07 01:41:31;;;;;;;22.83;10.25;;;;;;;12.29;100.00;102044.88;5071311;28;20454;-68
2023/10/07 01:43:59;;;;;;;23.20;10.10;;;;;;;12.32;100.00;102038.72;5070980;28;20035;-68
2023/10/07 01:46:29;;;;;;;23.33;10.57;;;;;;;12.32;100.00;102041.38;5072404;28;20067;-68
2023/10/07 01:48:57;;;;;;;22.92;10.50;;;;;;;12.29;100.00;102046.63;5072286;28;20483;-67
2023/10/07 01:51:23;;;;;;;24.63;11.23;;;;;;;12.29;100.00;102041.31;5072498;28;20028;-68
2023/10/07 01:53:56;;;;;;;24.88;11.35;;;;;;;12.33;100.00;102028.16;5073048;28;20033;-69
2023/10/07 01:56:22;;;;;;;25.02;11.45;;;;;;;12.42;100.00;102021.19;5071977;28;20059;-68
2023/10/07 01:58:47;;;;;;;24.90;11.45;;;;;;;12.49;100.00;102029.25;5076444;28;20479;-67
2023/10/07 02:01:16;;;;;;;25.33;11.98;;;;;;;12.49;100.00;102029.25;5076245;28;20067;-68
2023/10/07 02:03:44;;;;;;;26.23;12.18;;;;;;;12.54;100.00;102035.53;5076126;28;20037;-68
2023/10/07 02:06:11;;;;;;;24.98;12.05;;;;;;;12.58;100.00;102033.81;5076295;28;20502;-68
2023/10/07 02:08:37;;;;;;;25.40;12.25;;;;;;;12.62;100.00;102037.41;5076159;28;20029;-68
2023/10/07 02:11:06;;;;;;;24.95;12.20;;;;;;;12.64;100.00;102038.31;5075984;28;20093;-68
2023/10/07 02:13:32;;;;;;;28.10;12.75;;;;;;;12.65;100.00;102038.34;5076257;28;20033;-68
2023/10/07 02:15:57;;;;;;;28.00;12.68;;;;;;;12.65;100.00;102034.81;5075978;28;20095;-68
2023/10/07 02:18:27;;;;;;;24.77;12.65;;;;;;;12.67;100.00;102022.47;5075875;28;20021;-68
2023/10/07 02:20:53;;;;;;;28.38;13.60;;;;;;;12.71;100.00;102013.66;5076048;28;20021;-68
2023/10/07 02:23:37;;;;;;;26.25;13.23;;;;;;;12.70;100.00;102025.16;5075773;28;20436;-68
2023/10/07 02:26:21;;;;;;;27.30;13.35;;;;;;;12.74;100.00;102032.28;5103059;28;20033;-68
2023/10/07 02:28:52;;;;;;;28.00;13.80;;;;;;;12.80;100.00;102031.47;5071952;28;20058;-68
2023/10/07 02:31:19;;;;;;;26.05;13.85;;;;;;;12.84;100.00;102028.91;5072007;28;20044;-62
2023/10/07 02:33:46;;;;;;;27.15;13.52;;;;;;;12.91;100.00;102021.91;5074933;28;20397;-63
2023/10/07 02:36:21;;;;;;;26.63;14.50;;;;;;;12.94;100.00;102021.06;5075548;28;20115;-62
2023/10/07 02:38:52;;;;;;;27.42;15.40;;;;;;;12.99;100.00;102038.84;5071455;28;20068;-62
2023/10/07 02:41:19;;;;;;;27.08;15.73;;;;;;;13.03;100.00;102038.00;5071874;28;20041;-62
2023/10/07 02:43:48;;;;;;;28.30;15.43;;;;;;;13.07;100.00;102045.13;5071448;28;20033;-63
2023/10/07 02:46:31;;;;;;;29.08;16.33;;;;;;;13.09;100.00;102042.47;5075338;28;20036;-62
2023/10/07 02:49:09;;;;;;;28.48;16.58;;;;;;;13.12;100.00;102037.22;5072925;28;20033;-62
2023/10/07 02:51:39;;;;;;;29.30;17.10;;;;;;;13.17;100.00;102031.97;5075332;28;20438;-62
2023/10/07 02:54:20;;;;;;;29.13;17.33;;;;;;;13.19;100.00;102035.53;5075194;28;20111;-61
2023/10/07 02:56:55;;;;;;;29.63;17.33;;;;;;;13.24;100.00;102041.81;5071162;28;20116;-63
2023/10/07 02:59:29;;;;;;;29.33;16.98;;;;;;;13.25;100.00;102039.16;5072153;28;20044;-62
2023/10/07 03:04:43;;;;;;;31.23;18.70;;;;;;;13.29;100.00;102044.50;5075347;28;20144;-63
2023/10/07 03:07:16;;;;;;;31.75;18.77;;;;;;;13.30;100.00;102048.97;5075005;28;20133;-62
2023/10/07 03:12:27;;;;;;;29.98;18.48;;;;;;;13.38;100.00;102044.63;5051333;28;20041;-62
2023/10/07 03:15:20;;;;;;;30.58;18.55;;;;;;;13.41;100.00;102045.59;5075073;28;20028;-62
2023/10/07 03:17:45;;;;;;;30.80;18.67;;;;;;;13.43;100.00;102045.59;5074881;28;20128;-62
2023/10/07 03:20:24;;;;;;;31.13;18.50;;;;;;;13.44;100.00;102044.75;5075047;28;20422;-63
2023/10/07 03:28:20;;;;;;;31.33;18.67;;;;;;;13.54;100.00;102027.13;5071414;28;20037;-62
2023/10/07 03:30:51;;;;;;;31.73;18.95;;;;;;;13.54;100.00;102036.00;5070595;28;20028;-62
2023/10/07 03:33:24;;;;;;;31.77;18.63;;;;;;;13.53;100.00;102030.66;5070965;28;20500;-62
2023/10/07 03:38:25;;;;;;;32.50;19.20;;;;;;;13.54;100.00;102035.09;5070212;28;20036;-62
2023/10/07 03:40:54;;;;;;;30.00;17.98;;;;;;;13.55;100.00;102029.78;5074230;28;20049;-62
2023/10/07 03:43:20;;;;;;;30.40;18.85;;;;;;;13.58;100.00;102031.59;5074428;28;20033;-65
2023/10/07 03:45:45;;;;;;;31.73;18.25;;;;;;;13.58;100.00;102027.16;5074825;28;20033;-62
2023/10/07 03:48:23;;;;;;;32.55;19.63;;;;;;;13.60;100.00;102027.16;5074201;28;20514;-61
2023/10/07 03:50:59;;;;;;;33.80;19.73;;;;;;;13.64;100.00;102017.47;5070620;28;20032;-63
2023/10/07 03:53:44;;;;;;;32.72;19.52;;;;;;;13.65;100.00;102019.28;5071691;28;20384;-62
2023/10/07 03:56:10;;;;;;;32.13;19.80;;;;;;;13.63;100.00;102011.28;5074236;28;20033;-62
2023/10/07 03:58:36;;;;;;;31.70;19.25;;;;;;;13.67;100.00;102009.53;5074307;28;20025;-62
2023/10/07 04:01:16;;;;;;;32.60;19.85;;;;;;;13.68;100.00;102012.22;5074002;28;20032;-62
2023/10/07 04:03:51;;;;;;;33.80;20.67;;;;;;;13.66;100.00;102010.41;5073854;28;20169;-61
2023/10/07 04:06:34;;;;;;;33.30;20.13;;;;;;;13.68;100.00;102011.34;5069959;28;20036;-61
2023/10/07 04:09:05;;;;;;;33.55;20.58;;;;;;;13.71;100.00;102000.72;5071878;28;20021;-63
2023/10/07 04:11:33;;;;;;;32.28;20.17;;;;;;;13.72;100.00;101992.78;5073786;28;20036;-62
2023/10/07 04:14:05;;;;;;;30.85;20.20;;;;;;;13.71;100.00;101990.09;5073693;28;20039;-62
2023/10/07 04:16:33;;;;;;;33.78;20.83;;;;;;;13.71;100.00;101990.97;5073283;28;20033;-65
2023/10/07 04:19:38;;;;;;;32.10;20.52;;;;;;;13.72;100.00;101995.44;5074030;28;20032;-64
2023/10/07 04:21:51;;;;;;;31.52;19.88;;;;;;;13.75;100.00;102002.53;5067281;28;20033;-65
2023/10/07 04:24:20;;;;;;;32.70;20.30;;;;;;;13.77;100.00;102009.66;5073485;28;20047;-64
2023/10/07 04:29:42;;;;;;;33.75;20.05;;;;;;;13.75;100.00;101997.22;5050626;28;20446;-66
2023/10/07 04:32:19;;;;;;;33.50;20.85;;;;;;;13.76;100.00;102004.31;5073394;28;20024;-64
2023/10/07 04:35:06;;;;;;;33.22;19.88;;;;;;;13.78;100.00;102006.09;5073495;28;20033;-65
2023/10/07 04:37:47;;;;;;;32.28;20.10;;;;;;;13.81;100.00;102010.56;5071371;28;20032;-64
2023/10/07 04:42:59;;;;;;;32.53;19.48;;;;;;;13.85;100.00;102009.72;5073090;28;20427;-65
2023/10/07 04:45:36;;;;;;;31.98;18.95;;;;;;;13.88;100.00;102015.06;5069901;28;20048;-64
2023/10/07 04:48:23;;;;;;;32.53;18.90;;;;;;;13.88;100.00;102020.38;5073083;28;20047;-67
2023/10/07 04:51:02;;;;;;;30.08;17.85;;;;;;;13.90;100.00;102015.97;5068915;28;20186;-67
2023/10/07 04:53:36;;;;;;;30.20;17.77;;;;;;;13.91;100.00;102025.72;5070818;28;20041;-67
2023/10/07 04:56:01;;;;;;;28.58;17.25;;;;;;;13.87;100.00;102023.91;5073073;28;20376;-66
2023/10/07 04:58:27;;;;;;;30.02;17.13;;;;;;;13.85;100.00;102019.44;5073116;28;20035;-67
2023/10/07 05:01:04;;;;;;;29.63;17.60;;;;;;;13.85;100.00;102019.44;5073220;28;20067;-67
2023/10/07 05:03:30;;;;;;;29.75;17.05;;;;;;;13.84;100.00;102013.25;5072721;28;20028;-64
2023/10/07 05:05:55;;;;;;;29.40;16.35;;;;;;;13.84;100.00;102020.34;5072945;28;20032;-64
2023/10/07 05:08:22;;;;;;;30.25;17.60;;;;;;;13.86;100.00;102023.91;5073078;28;20482;-63
2023/10/07 05:10:52;;;;;;;27.40;15.70;;;;;;;13.87;100.00;102023.91;5068968;28;20082;-65
2023/10/07 05:13:19;;;;;;;29.45;15.68;;;;;;;13.86;100.00;102027.47;5069039;28;20026;-65
2023/10/07 05:15:44;;;;;;;28.20;14.93;;;;;;;13.87;100.00;102018.59;5072660;28;20032;-65
2023/10/07 05:18:17;;;;;;;28.70;14.85;;;;;;;13.87;100.00;102018.59;5072826;28;20047;-63
2023/10/07 05:20:46;;;;;;;29.13;15.40;;;;;;;13.86;100.00;102019.50;5072615;28;20025;-66
2023/10/07 05:23:14;;;;;;;27.20;14.95;;;;;;;13.86;100.00;102022.16;5072755;28;20033;-64
2023/10/07 05:25:48;;;;;;;28.52;15.13;;;;;;;13.88;100.00;102028.34;5072547;28;20085;-66
2023/10/07 05:28:25;;;;;;;28.58;14.25;;;;;;;13.89;100.00;102022.19;5072730;28;20469;-63
2023/10/07 05:30:51;;;;;;;27.20;14.30;;;;;;;13.89;100.00;102021.25;5068976;28;20032;-66
2023/10/07 05:33:24;;;;;;;28.13;14.32;;;;;;;13.88;100.00;102012.41;5068850;28;20424;-64
2023/10/07 05:35:49;;;;;;;;;;;;;;;13.94;100.00;102003.59;5069201;28;20062;-66
2023/10/07 05:38:19;;;;;;;26.10;13.02;;;;;;;13.90;100.00;102008.00;5104837;28;19919;-62
2023/10/07 05:40:46;;;;;;;27.05;13.18;;;;;;;13.93;100.00;101997.38;5072512;28;20042;-63
2023/10/07 05:43:12;;;;;;;24.90;13.18;;;;;;;13.89;100.00;102011.53;5072291;28;20067;-64
2023/10/07 05:45:38;;;;;;;25.33;13.90;;;;;;;13.92;100.00;102011.56;5072251;28;20024;-64
2023/10/07 05:48:04;;;;;;;27.88;12.95;;;;;;;13.91;100.00;102008.91;5072514;28;20032;-64
2023/10/07 05:50:32;;;;;;;26.02;12.80;;;;;;;13.94;100.00;102014.25;5072372;28;20020;-64
2023/10/07 05:52:59;;;;;;;24.48;13.45;;;;;;;13.87;100.00;102020.38;5072272;28;20033;-65
2023/10/07 05:55:25;;;;;;;26.38;13.35;;;;;;;13.87;100.00;102021.25;5072458;28;20050;-65
2023/10/07 05:57:52;;;;;;;27.23;13.27;;;;;;;13.85;100.00;102023.00;5072513;28;20037;-64
2023/10/07 06:00:18;;;;;;;27.73;13.63;;;;;;;13.87;100.00;102018.59;5068161;28;20029;-65
2023/10/07 06:02:43;;;;;;;27.13;13.48;;;;;;;13.91;100.00;102015.09;5072449;28;20434;-66
2023/10/07 06:05:10;;;;;;;26.25;13.10;;;;;;;13.90;100.00;102021.28;5072151;28;20047;-65
2023/10/07 06:07:39;;;;;;;26.60;13.15;;;;;;;13.88;100.00;102033.69;5072087;28;20032;-65
2023/10/07 06:10:10;;;;;;;26.35;13.10;;;;;;;13.94;100.00;102027.53;5072330;28;20044;-64
2023/10/07 06:12:36;;;;;;;26.73;13.57;;;;;;;13.96;100.00;102033.72;5067242;28;20025;-65
2023/10/07 06:15:02;;;;;;;25.58;12.60;;;;;;;13.98;100.00;102024.03;5068205;28;20029;-64
2023/10/07 06:17:27;;;;;;;26.35;12.77;;;;;;;13.97;100.00;102045.28;5071997;28;20028;-64
2023/10/07 06:19:53;;;;;;;26.52;12.57;;;;;;;14.04;100.00;102028.50;5071891;28;20032;-65
2023/10/07 06:22:22;;;;;;;24.83;12.80;;;;;;;14.09;100.00;102026.75;5071902;28;20380;-66
2023/10/07 06:24:52;;;;;;;24.63;11.98;;;;;;;14.12;100.00;102029.44;5071952;28;20037;-63
2023/10/07 06:27:21;;;;;;;24.73;12.00;;;;;;;14.09;100.00;102021.44;5070691;28;20115;-65
2023/10/07 06:29:48;;;;;;;25.42;12.27;;;;;;;14.13;100.00;102041.88;5072046;28;20093;-64
2023/10/07 06:32:23;;;;;;;25.98;12.38;;;;;;;14.10;100.00;102045.38;5068873;28;20036;-62
2023/10/07 06:34:51;;;;;;;26.02;12.15;;;;;;;14.13;100.00;102047.19;5063705;28;20096;-62
2023/10/07 06:37:21;;;;;;;25.35;11.90;;;;;;;14.13;100.00;102056.03;5067646;28;20415;-66
2023/10/07 06:39:51;;;;;;;25.63;12.15;;;;;;;14.14;100.00;102051.63;5068333;28;20643;-63
2023/10/07 06:42:21;;;;;;;25.17;12.13;;;;;;;14.13;100.00;102045.41;5072061;28;20112;-63
2023/10/07 06:44:47;;;;;;;23.27;11.27;;;;;;;14.13;100.00;102053.38;5071133;28;20037;-64
2023/10/07 06:47:13;;;;;;;25.58;11.43;;;;;;;14.15;100.00;102040.09;5048546;28;20029;-65
2023/10/07 06:49:39;;;;;;;24.58;11.20;;;;;;;14.19;100.00;102043.69;5071014;28;20033;-63
2023/10/07 06:52:05;;;;;;;25.58;11.68;;;;;;;14.22;100.00;102044.59;5075538;28;20041;-66
2023/10/07 06:54:32;;;;;;;23.52;10.95;;;;;;;14.25;100.00;102046.41;5075221;28;20089;-62
2023/10/07 06:56:58;;;;;;;24.52;10.48;;;;;;;14.27;100.00;102042.88;5075360;28;20353;-62
2023/10/07 06:59:27;;;;;;;22.52;10.27;;;;;;;14.32;100.00;102047.34;5075179;28;20025;-64
2023/10/07 07:01:54;;;;;;;25.10;10.50;;;;;;;14.36;100.00;102059.78;5071209;28;20020;-63
2023/10/07 07:04:22;;;;;;;24.42;10.27;;;;;;;14.37;100.00;102067.78;5075091;28;20127;-62
2023/10/07 07:06:57;;;;;;;24.38;10.43;;;;;;;14.35;100.00;102064.22;5075077;28;20460;-62
2023/10/07 07:09:41;;;;;;;25.85;10.48;;;;;;;14.34;100.00;102056.22;5073747;28;20028;-63
2023/10/07 07:12:09;;;;;;;23.95;10.02;;;;;;;14.40;100.00;102046.53;5072911;28;20024;-62
2023/10/07 07:14:42;;;;;;;24.55;10.52;;;;;;;14.46;100.00;102057.22;5074702;28;20371;-62
2023/10/07 07:22:38;;;;;;;22.80;9.65;;;;;;;14.72;100.00;102060.97;5074987;28;20591;-63
2023/10/07 07:25:05;;;;;;;24.33;9.98;;;;;;;14.73;100.00;102060.09;5074779;28;20031;-64
2023/10/07 07:27:34;;;;;;;23.60;10.00;;;;;;;14.73;100.00;102062.75;5074620;28;20039;-62
2023/10/07 07:30:03;;;;;;;23.80;9.52;;;;;;;14.80;100.00;102067.22;5074625;28;20021;-62
2023/10/07 07:32:33;;;;;;;23.92;9.20;;;;;;;14.82;100.00;102069.03;5074749;28;20062;-64
2023/10/07 07:35:04;;;;;;;25.23;10.30;;;;;;;14.82;100.00;102081.44;5074552;28;20024;-65
2023/10/07 07:37:31;;;;;;;22.97;9.53;;;;;;;14.82;100.00;102065.47;5073174;28;20166;-63
2023/10/07 07:40:35;;;;;;;21.75;9.30;;;;;;;14.78;100.00;102063.66;5073247;28;20765;-64
2023/10/07 07:42:55;;;;;;;24.40;9.43;;;;;;;14.77;100.00;102075.19;5070754;28;20112;-65
2023/10/07 07:45:26;;;;;;;23.77;9.38;;;;;;;14.88;100.00;102065.50;5074474;28;20032;-66
2023/10/07 07:47:55;;;;;;;21.70;9.30;;;;;;;15.11;100.00;102070.94;5074245;28;20107;-67
2023/10/07 07:50:21;;;;;;;22.67;9.63;;;;;;;15.27;100.00;102065.69;5074500;28;20372;-66
2023/10/07 07:52:49;;;;;;;22.27;8.95;;;;;;;15.36;100.00;102068.38;5073221;28;20464;-65
2023/10/07 07:55:17;;;;;;;21.98;8.95;;;;;;;15.39;100.00;102067.50;5074288;28;20035;-67
2023/10/07 07:57:45;;;;;;;22.67;9.50;;;;;;;15.33;100.00;102055.97;5070137;28;20154;-67
2023/10/07 08:00:20;;;;;;;22.10;8.52;;;;;;;15.27;100.00;102068.34;5072822;28;20031;-67
2023/10/07 08:02:48;;;;;;;23.15;9.07;;;;;;;15.25;100.00;102080.78;5069610;28;20379;-67
2023/10/07 08:05:16;;;;;;;24.65;9.48;;;;;;;15.36;100.00;102089.69;5069975;28;20036;-67
2023/10/07 08:07:42;;;;;;;22.15;9.13;;;;;;;15.68;100.00;102087.16;5073906;28;20047;-67
2023/10/07 08:10:10;;;;;;;22.13;8.70;;;;;;;15.91;100.00;102083.69;5074230;28;20028;-68
2023/10/07 08:12:36;;;;;;;21.98;8.38;;;;;;;16.14;100.00;102086.38;5073714;28;20531;-68
2023/10/07 08:15:40;;;;;;;22.08;7.82;;;;;;;16.36;100.00;102076.59;5073592;28;20107;-67
2023/10/07 08:17:56;;;;;;;21.45;7.65;;;;;;;16.54;100.00;102064.13;5066798;28;20123;-71
2023/10/07 08:20:38;;;;;;;22.35;8.02;;;;;;;16.78;100.00;102089.03;5065122;28;20037;-67
2023/10/07 08:23:08;;;;;;;20.23;7.00;;;;;;;16.95;100.00;102075.66;5066195;28;20032;-66
2023/10/07 08:25:46;;;;;;;21.42;7.20;;;;;;;17.03;100.00;102064.06;5067812;28;20036;-69
2023/10/07 08:28:19;;;;;;;20.92;7.40;;;;;;;17.11;100.00;102055.13;5070395;28;20036;-63
2023/10/07 08:30:47;;;;;;;20.38;7.20;;;;;;;17.22;100.00;102061.34;5073277;28;20067;-64
2023/10/07 08:33:23;;;;;;;23.15;7.07;;;;;;;17.27;100.00;102042.59;5073079;28;20028;-65
2023/10/07 08:35:51;;;;;;;21.25;7.05;;;;;;;17.44;100.00;102056.78;5073609;28;20055;-66
2023/10/07 08:38:37;;;;;;;22.17;7.45;;;;;;;17.66;100.00;102054.84;5073007;28;20028;-66
2023/10/07 08:41:04;;;;;;;19.17;6.22;;;;;;;17.87;100.00;102059.19;5068796;28;20057;-63
2023/10/07 08:43:37;;;;;;;20.88;6.40;;;;;;;18.05;100.00;102058.19;5072962;28;20036;-67
2023/10/07 08:46:11;;;;;;;20.27;6.53;;;;;;;18.24;100.00;102058.06;5068531;28;20020;-63
2023/10/07 08:48:39;;;;;;;22.15;7.53;;;;;;;18.42;100.00;102057.00;5073118;28;20484;-65
2023/10/07 08:51:14;;;;;;;19.50;6.43;;;;;;;18.56;100.00;102051.53;5072849;28;20024;-64
2023/10/07 08:53:40;;;;;;;21.25;6.53;;;;;;;18.79;100.00;102049.50;5072688;28;20387;-64
2023/10/07 08:56:11;;;;;;;19.73;6.50;;;;;;;18.74;100.00;102039.72;5072977;28;20027;-66
2023/10/07 08:58:41;;;;;;;20.38;6.90;;;;;;;18.65;100.00;102035.34;5073127;28;20029;-64
2023/10/07 09:01:17;;;;;;;19.05;6.10;;;;;;;18.60;100.00;102039.88;5072821;28;20031;-63
2023/10/07 09:03:47;;;;;;;20.20;6.55;;;;;;;18.75;100.00;102031.69;5072503;28;20074;-66
2023/10/07 09:06:12;;;;;;;20.23;6.20;;;;;;;18.73;100.00;102046.88;5072743;28;20028;-65
2023/10/07 09:08:38;;;;;;;20.20;6.30;;;;;;;18.78;100.00;102044.16;5072877;28;20024;-64
2023/10/07 09:11:07;;;;;;;19.45;5.70;;;;;;;19.07;100.00;102041.16;5072745;28;20384;-65
2023/10/07 09:13:33;;;;;;;19.73;6.07;;;;;;;19.48;100.00;102038.84;5072759;28;20487;-66
2023/10/07 09:15:59;;;;;;;20.27;6.10;;;;;;;19.72;100.00;102045.66;5072933;28;20063;-66
2023/10/07 09:18:41;;;;;;;19.67;6.00;;;;;;;19.56;100.00;102025.34;5068500;28;20048;-66
2023/10/07 09:21:18;;;;;;;20.38;6.15;;;;;;;19.68;100.00;102033.22;5070502;28;20060;-66
2023/10/07 09:23:47;;;;;;;19.63;5.55;;;;;;;20.09;100.00;102025.44;5072727;28;20387;-65
2023/10/07 09:26:30;;;;;;;20.40;5.70;;;;;;;20.19;100.00;102017.19;5072724;28;20048;-66
2023/10/07 09:29:00;;;;;;;19.80;5.47;;;;;;;20.42;100.00;102031.16;5068822;28;20024;-63
2023/10/07 09:31:28;;;;;;;19.20;5.28;;;;;;;20.34;100.00;102033.97;5068463;28;20103;-66
2023/10/07 09:33:55;;;;;;;19.25;5.53;;;;;;;20.57;100.00;102020.13;5072496;28;20025;-66
2023/10/07 09:41:44;;;;;;;19.52;5.60;;;;;;;21.14;100.00;102031.56;5070287;28;20032;-66
2023/10/07 09:44:20;;;;;;;;;;;;;;;21.14;100.00;102021.69;5073054;28;20495;-63
2023/10/07 09:46:46;;;;;;;20.60;5.43;;;;;;;21.28;100.00;102029.47;5072637;28;19912;-62
2023/10/07 09:49:14;;;;;;;20.05;5.22;;;;;;;21.55;100.00;102033.38;5072556;28;20036;-63
2023/10/07 09:51:47;;;;;;;17.63;4.97;;;;;;;21.75;100.00;102029.34;5072621;28;20032;-64
2023/10/07 09:54:27;;;;;;;17.25;4.90;;;;;;;21.59;100.00;102020.72;5072338;28;20033;-70
2023/10/07 09:57:22;;;;;;;18.75;5.03;;;;;;;21.47;100.00;102029.94;5072238;28;20024;-70
2023/10/07 09:59:56;;;;;;;19.67;5.47;;;;;;;21.55;100.00;102010.97;5071237;28;20028;-70
2023/10/07 10:02:52;;;;;;;20.08;5.00;;;;;;;21.53;100.00;102019.06;5072197;28;20621;-70
2023/10/07 10:05:44;;;;;;;17.02;4.80;;;;;;;21.59;100.00;102018.03;5060231;28;20055;-69
2023/10/07 10:08:19;;;;;;;;;;;;;;;21.69;100.00;102022.28;5070754;28;20059;-70
2023/10/07 10:10:49;;;;;;;19.55;5.00;;;;;;;21.94;100.00;102019.00;5072274;28;19919;-70
2023/10/07 10:13:29;;;;;;;17.38;4.78;;;;;;;21.76;100.00;102025.72;5072349;28;20086;-70
2023/10/07 10:16:00;;;;;;;18.48;4.90;;;;;;;21.96;100.00;102037.81;5074712;28;20032;-70
2023/10/07 10:18:38;;;;;;;17.27;4.40;;;;;;;22.06;100.00;102039.34;5072107;28;20033;-71
2023/10/07 10:21:05;;;;;;;18.98;4.75;;;;;;;22.16;100.00;102043.56;5066020;28;20043;-68
2023/10/07 10:23:34;;;;;;;18.35;4.60;;;;;;;22.30;100.00;102054.00;5067889;28;20032;-66
2023/10/07 10:26:03;;;;;;;18.60;5.10;;;;;;;22.71;100.00;102053.88;5075776;28;20090;-72
2023/10/07 10:28:33;;;;;;;18.75;5.28;;;;;;;23.12;100.00;102059.91;5075110;28;20075;-69
2023/10/07 10:30:59;;;;;;;19.27;5.10;;;;;;;23.89;100.00;102051.31;5071364;28;20020;-69
2023/10/07 10:33:28;;;;;;;18.02;5.03;;;;;;;24.42;100.00;102051.31;5073804;28;20028;-67
2023/10/07 10:35:57;;;;;;;16.83;4.80;;;;;;;24.83;100.00;102050.81;5069693;28;20087;-69
2023/10/07 10:38:37;;;;;;;18.95;5.10;;;;;;;24.99;100.00;102052.00;5073643;28;20243;-68
2023/10/07 10:41:04;;;;;;;16.98;4.80;;;;;;;25.00;100.00;102048.38;5070762;28;20059;-69
2023/10/07 10:43:31;;;;;;;19.45;5.07;;;;;;;24.76;100.00;102057.38;5074534;28;20093;-69
2023/10/07 10:46:07;;;;;;;19.20;5.05;;;;;;;24.33;100.00;102063.34;5075567;28;20036;-70
2023/10/07 10:48:38;;;;;;;19.75;5.30;;;;;;;24.22;100.00;102054.72;5071983;28;20024;-68
2023/10/07 10:51:05;;;;;;;18.85;4.75;;;;;;;24.51;100.00;102055.53;5075132;28;20028;-68
2023/10/07 10:53:33;;;;;;;17.58;4.80;;;;;;;24.54;100.00;102061.69;5075238;28;20024;-67
2023/10/07 10:55:59;;;;;;;19.08;5.50;;;;;;;24.12;100.00;102064.06;5071603;28;20408;-69
2023/10/07 10:58:25;;;;;;;17.75;4.72;;;;;;;24.47;100.00;102043.94;5073628;28;20025;-68
2023/10/07 11:00:54;;;;;;;18.85;5.10;;;;;;;24.81;100.00;102048.13;5075276;28;20043;-69
2023/10/07 11:03:23;;;;;;;18.10;5.20;;;;;;;25.65;100.00;102045.88;5075127;28;20497;-68
2023/10/07 11:05:52;;;;;;;17.42;4.95;;;;;;;25.72;100.00;102039.28;5075071;28;20024;-69
2023/10/07 11:08:23;;;;;;;19.30;5.00;;;;;;;25.36;100.00;102047.03;5073525;28;20024;-71
2023/10/07 11:10:51;;;;;;;17.02;5.05;;;;;;;25.13;100.00;102050.59;5074142;28;20034;-71
2023/10/07 11:13:17;;;;;;;18.88;5.13;;;;;;;25.16;100.00;102032.41;5070911;28;20028;-73
2023/10/07 11:15:59;;;;;;;16.17;4.82;;;;;;;24.89;100.00;102029.81;5072785;28;20051;-71
2023/10/07 11:18:25;;;;;;;19.15;5.30;;;;;;;25.85;100.00;102044.19;5068172;28;20029;-70
2023/10/07 11:20:51;;;;;;;19.63;5.28;;;;;;;26.61;100.00;102050.88;5070550;28;20017;-70
2023/10/07 11:23:17;;;;;;;18.73;5.25;;;;;;;26.16;100.00;102032.97;5072728;28;20036;-68
2023/10/07 11:25:43;;;;;;;19.00;4.93;;;;;;;26.31;100.00;102027.84;5066321;28;20046;-68
2023/10/07 11:28:15;;;;;;;19.20;5.53;;;;;;;26.23;100.00;102036.31;5074854;28;20032;-66
2023/10/07 11:30:47;;;;;;;19.98;5.43;;;;;;;27.08;100.00;102033.44;5074344;28;20028;-65
2023/10/07 11:33:16;;;;;;;19.38;5.55;;;;;;;27.40;100.00;102022.91;5074379;28;20445;-67
2023/10/07 11:35:42;;;;;;;18.23;5.00;;;;;;;26.97;100.00;102024.94;5074378;28;20028;-66
2023/10/07 11:38:11;;;;;;;18.88;5.30;;;;;;;26.44;100.00;102029.06;5074572;28;20031;-67
2023/10/07 11:40:37;;;;;;;18.70;4.95;;;;;;;26.41;100.00;102013.81;5074332;28;20056;-64
2023/10/07 11:43:08;;;;;;;18.70;5.25;;;;;;;25.99;100.00;102032.78;5073100;28;20028;-67
2023/10/07 11:45:36;;;;;;;19.10;5.38;;;;;;;25.70;100.00;102021.31;5071148;28;20040;-68
2023/10/07 11:48:05;;;;;;;21.20;5.15;;;;;;;26.49;100.00;102016.22;5074286;28;20032;-67
2023/10/07 11:50:35;;;;;;;18.33;5.03;;;;;;;27.72;96.03;102025.03;5070558;28;20028;-67
2023/10/07 11:53:09;;;;;;;18.98;5.03;;;;;;;28.81;86.86;102021.25;5070358;28;20035;-66
2023/10/07 11:55:35;;;;;;;17.55;4.75;;;;;;;28.62;75.45;102054.88;5071097;28;20078;-67
2023/10/07 11:58:02;;;;;;;18.65;4.70;;;;;;;27.47;82.97;102028.94;5074072;28;20033;-68
2023/10/07 12:00:30;;;;;;;18.90;5.20;;;;;;;26.43;100.00;102024.59;5074078;28;20033;-67